Cassville, WI

7:38 PM CST on January 28, 2015 (GMT -0600)
Kress Lane | Change Station
CLOSE
Current Station
Personal Weather Station
Location: Potosi, WI
Elevation: 653 ft
Nearby Weather Stations
Active Advisory: Special Statement

Elev 653 ft 42.63 °N, 90.66 °W | Updated 9 seconds ago

Partly Cloudy
Partly Cloudy
34.5 °F
Feels Like 30 °F
N
4.5
Wind Variable Wind from SW
Gusts 7.4 mph

Today
High -- | Low -- °F
--% Chance of Precip.
Yesterday
High -- | Low -- °F
Precip. -- in
7:22 AM 5:11 PM
Waxing Gibbous, 69% visible
Pressure 29.82 in
Visibility 10.0 miles
Clouds Overcast 2200 ft
Windchill 30 °F
Dew Point 25 °F
Humidity 69%
Rainfall 0.04 in
Snow Depth Not available.
UV 0.0 out of 12
Pollen .10 out of 12
Air Quality Not available.
Flu Activity Not available.
METAR KPDC 290115Z AUTO 10007KT 10SM OVC022 00/M04 A2982 RMK AO2 T00021040

More Conditions Fewer Conditions

Pressure 29.82 in
Visibility 10.0 miles
Clouds Overcast 2200 ft
Windchill 30 °F
Dew Point 25 °F
Humidity 69%
Rainfall 0.04 in
Snow Depth Not available.
UV 0.0 out of 12
Pollen .10 out of 12
Air Quality Not available.
Flu Activity Not available.
METAR KPDC 290115Z AUTO 10007KT 10SM OVC022 00/M04 A2982 RMK AO2 T00021040

More Conditions Fewer Conditions

10-Day Weather Forecast

Almanac

Astronomy

Jan. 28, 2015 Rise Set
Actual Time
Civil Twilight
Nautical Twilight
Astronomical Twilight
Moon
Length of Visible Light
Length of Day
Tomorrow will be .
, % of the Moon is Illuminated

Today's Extremes

State Highs State Lows

Community

WunderPhotos

Upload Photos

1,791,321 photos uploaded!

WunderBlogs® & News

Nearby

Air Quality

  Air Quality AQ Index Pollutant
Not available.

Snow Depth

Station Depth Elevation

Earthquake Activity

City Distance Mag. Time & Date
Minimum magnitude displayed is 2.5.

Coastal Water Temperatures

Place Temperature

Nearby Weather Stations